Hit Tracker is now ESPN Home Run Tracker! Hit Tracker founder Greg Rybarczyk is now collaborating with the ESPN Stats & Information Group to continue tracking all MLB home runs, and helping baseball fans know "How Far It Really Went!™" Please credit any information on this site to ESPN Stats & Information Group. For more information and analysis on home runs, please contact founder Greg Rybarczyk. E-Mail ESPN Home Run Tracker
Main Page | Ballparks | Park Overlays | Glossary | Highlight Homers | Feedback | Bio | 3 Types of HR's | AAA Home Run Derby Last Updated: August 30, 2016, 10:48 pm PST
If you want to know "How Far It Really Went!", then you've come to the right place! Welcome to the ESPN Home Run Tracker, where you can find accurate, transparently verifiable distances for every home run hit in MLB games. Please also check out the ESPN MLB Scoreboard throughout the 2016 season! Contact us at grybar@hittrackeronline.com.
Season:
Ballpark detail for Oriole Park at Camden Yards
Ballpark # of Home Runs HR per game Avg.
True
Distance
Avg.
Speed
Off
Bat
Avg.
Std.
Dist.
Oriole Park at Camden Yards 186 2.82 399.5 103.8 396.9

Scatter Plot of Home Runs Oriole Park at Camden Yards
 Overlay Ballpark:
Without range rings   With range rings

2016 Season Home Runs for Oriole Park at Camden Yards
Click headers to sort
Date Video Path Hitter Hitter
Team
Pitcher Pitcher
Team
INN Ballpark ^ Type/
Luck
True
Dist.
Speed
Off
Bat
Elev.
Angle
Horiz.
Angle
Apex Impact Due To: Std.
Dist.
#
Parks
Wind Temp. Alt.
04/19/16 Video View Machado, Manny BAL Stroman, Marcus TOR 4 Oriole Park ... PL 422 107.1 21.7 93.2 72 1 0 0 421 23
04/06/16 Video View Davis, Chris BAL Gibson, Kyle MIN 3 Oriole Park ... PL 421 105.2 26.0 90.0 106 -7 -2 0 432 28
04/06/16 Video View Plouffe, Trevor MIN Givens, Mychal BAL 6 Oriole Park ... PL 367 99.1 35.0 118.6 108 7 -4 0 364 30
04/07/16 Video View Mauer, Joe MIN Jimenez, Ubaldo BAL 1 Oriole Park ... JE 406 102.7 24.0 86.0 74 0 -1 0 407 9
04/07/16 Video View Machado, Manny BAL Hughes, Phil MIN 6 Oriole Park ... JE 373 98.3 28.0 108.2 78 2 -1 0 372 15
04/07/16 Video View Rickard, Joey BAL May, Trevor MIN 8 Oriole Park ... PL 399 99.1 30.1 96.9 100 5 -3 0 396 11
04/08/16 Video View Longoria, Evan TB Tillman, Chris BAL 1 Oriole Park ... ND 435 111.1 27.8 115.0 92 8 -3 0 429 30
04/08/16 Video View Davis, Chris BAL Archer, Chris TB 2 Oriole Park ... PL 406 101.0 31.1 85.9 115 0 -2 0 408 18
04/08/16 Video View Schoop, Jonathan BAL Archer, Chris TB 5 Oriole Park ... PL 428 105.1 26.0 95.3 91 3 -2 0 427 29
04/08/16 Video View Reimold, Nolan BAL Archer, Chris TB 5 Oriole Park ... JE 396 102.3 23.9 82.1 71 0 -1 0 397 12
04/08/16 Video View Machado, Manny BAL Archer, Chris TB 5 Oriole Park ... PL 400 107.2 25.3 113.0 73 1 -2 0 400 30
04/10/16 Video View Machado, Manny BAL Odorizzi, Jake TB 2 Oriole Park ... PL 391 99.8 31.6 99.9 112 -1 -4 0 395 28
04/10/16 Video View Dickerson, Corey TB Worley, Vance BAL 4 Oriole Park ... PL 417 113.0 18.7 82.9 56 0 -1 0 417 25
04/19/16 Video View Wieters, Matt BAL Stroman, Marcus TOR 7 Oriole Park ... JE/L 353 100.3 25.2 63.0 62 -2 -1 0 356 14
04/20/16 Video View Donaldson, Josh TOR Jimenez, Ubaldo BAL 5 Oriole Park ... JE 381 100.8 25.4 74.5 70 1 -1 0 380 13
04/28/16 Video View Frazier, Todd CHW Wilson, Tyler BAL 1 Oriole Park ... PL 381 100.2 30.7 108.5 99 -2 -3 0 386 30
04/28/16 Video View Trumbo, Mark BAL Danks, John CHW 3 Oriole Park ... PL 435 108.6 22.5 93.4 81 0 -1 0 436 29
04/28/16 Video View Davis, Chris BAL Danks, John CHW 3 Oriole Park ... JE 398 100.5 32.5 82.4 122 1 -4 0 399 15
04/28/16 Video View Machado, Manny BAL Petricka, Jake CHW 6 Oriole Park ... PL 411 103.2 25.9 94.6 94 -3 -2 0 417 26
04/29/16 Video View Lawrie, Brett CHW Brach, Brad BAL 7 Oriole Park ... PL 377 100.4 29.6 110.7 92 -3 -3 0 383 30
04/29/16 Video View Reimold, Nolan BAL Rodon, Carlos CHW 7 Oriole Park ... JE/L 358 97.3 28.3 68.1 78 -2 -2 0 362 12
04/30/16 Video View Lawrie, Brett CHW Gausman, Kevin BAL 4 Oriole Park ... PL 403 103.8 31.8 111.4 108 6 -2 0 399 30
04/30/16 Video View Alvarez, Pedro BAL Latos, Mat CHW 4 Oriole Park ... JE 390 103.9 22.6 100.6 63 -1 0 0 391 6
04/30/16 Video View Schoop, Jonathan BAL Latos, Mat CHW 4 Oriole Park ... PL 382 99.9 33.2 112.1 106 6 -2 0 378 30
04/30/16 Video View Frazier, Todd CHW O'Day, Darren BAL 8 Oriole Park ... PL 420 103.4 27.2 93.9 97 0 -2 0 421 28
05/01/16 Video View Lawrie, Brett CHW Jimenez, Ubaldo BAL 4 Oriole Park ... JE 409 102.7 24.2 87.4 77 0 -1 0 409 9
05/03/16 Video View Trumbo, Mark BAL Severino, Luis NYY 2 Oriole Park ... ND 405 105.6 32.7 117.0 110 7 -2 0 400 30
05/03/16 Video View Trumbo, Mark BAL Severino, Luis NYY 5 Oriole Park ... PL 376 103.0 37.6 110.7 142 9 -4 0 370 29
05/07/16 Video View Semien, Marcus OAK Matusz, Brian BAL 8 Oriole Park ... ND 411 104.4 28.8 106.6 96 1 -1 0 410 30
05/07/16 Video View Davis, Chris BAL Hahn, Jesse OAK 3 Oriole Park ... PL 427 108.0 25.0 77.7 84 0 -1 0 427 29
05/08/16 Video View Machado, Manny BAL Graveman, Kendall OAK 1 Oriole Park ... JE 400 103.3 24.0 80.9 80 -2 0 0 401 25
05/08/16 Video View Alvarez, Pedro BAL Graveman, Kendall OAK 2 Oriole Park ... ND 413 103.6 33.5 67.1 110 19 0 0 393 30
05/08/16 Video View Schoop, Jonathan BAL Graveman, Kendall OAK 2 Oriole Park ... JE 384 111.6 20.7 114.4 51 2 0 0 382 20
05/08/16 Video View Trumbo, Mark BAL Graveman, Kendall OAK 3 Oriole Park ... PL 400 104.2 31.8 117.6 104 6 0 0 394 30
05/08/16 Video View Rickard, Joey BAL Dull, Ryan OAK 4 Oriole Park ... JE/L 367 95.5 32.9 108.2 100 5 0 0 362 3
05/08/16 Video View Machado, Manny BAL Wendelken, J.B. OAK 8 Oriole Park ... PL 416 106.6 23.3 100.6 71 4 0 0 413 27
05/12/16 Video View Saltalamacchia, Jarrod DET Jimenez, Ubaldo BAL 4 Oriole Park ... ND 385 104.8 28.1 55.4 76 2 0 0 383 30
05/13/16 Video View Jones, Adam BAL Verlander, Justin DET 6 Oriole Park ... PL 413 103.8 24.4 95.5 79 0 0 0 413 21
05/14/16 Video View Cabrera, Miguel DET Wright, Mike BAL 6 Oriole Park ... ND 464 110.7 26.3 99.4 94 0 0 0 464 30
05/14/16 Video View Wieters, Matt BAL Sanchez, Anibal DET 6 Oriole Park ... ND 389 96.1 37.4 74.3 116 0 0 0 389 27
05/14/16 Video View Schoop, Jonathan BAL Sanchez, Anibal DET 7 Oriole Park ... PL 403 113.2 21.2 111.6 54 0 0 0 403 30
05/14/16 Video View Jones, Adam BAL VerHagen, Drew DET 8 Oriole Park ... JE 367 97.5 33.2 113.4 102 3 -2 0 365 22
05/14/16 Video View Schoop, Jonathan BAL Lowe, Mark DET 8 Oriole Park ... ND 424 114.9 22.1 110.4 65 2 -1 0 423 30
05/15/16 Video View Kinsler, Ian DET Gausman, Kevin BAL 4 Oriole Park ... JE 379 101.8 25.6 112.0 65 4 -1 0 375 16
05/15/16 Video View Cabrera, Miguel DET O'Day, Darren BAL 8 Oriole Park ... JE 384 108.3 20.3 105.8 51 5 0 0 379 1
05/15/16 Video View Martinez, J.D. DET O'Day, Darren BAL 8 Oriole Park ... PL 413 99.7 32.1 98.7 111 20 -2 0 395 3
05/15/16 Video View Machado, Manny BAL Fulmer, Michael DET 5 Oriole Park ... JE 400 104.4 22.4 82.9 63 -1 0 0 401 18
05/17/16 Video View Seager, Kyle SEA Matusz, Brian BAL 5 Oriole Park ... JE 393 100.8 27.0 78.6 86 -1 -1 0 395 25
05/17/16 Video View Cruz, Nelson SEA Matusz, Brian BAL 6 Oriole Park ... PL 394 103.9 26.4 109.5 78 1 -1 0 394 30
05/18/16 Video View Trumbo, Mark BAL Walker, Taijuan SEA 2 Oriole Park ... ND 408 109.6 25.8 115.7 79 -2 -1 0 411 30
05/18/16 Video View Wieters, Matt BAL Walker, Taijuan SEA 2 Oriole Park ... PL 362 97.3 31.4 62.9 87 2 -1 0 361 26
05/18/16 Video View Martin, Leonys SEA Tillman, Chris BAL 3 Oriole Park ... JE 377 105.6 24.3 62.9 62 0 -1 -1 378 29
05/19/16 Video View Lind, Adam SEA Wilson, Tyler BAL 6 Oriole Park ... JE 365 97.1 33.5 112.7 103 0 0 0 364 22
05/19/16 Video View Martin, Leonys SEA Bundy, Dylan BAL 9 Oriole Park ... JE/L 374 96.6 30.6 75.7 94 -1 0 0 374 11
05/30/16 Video View Bradley Jr., Jackie BOS Wilson, Tyler BAL 6 Oriole Park ... JE 409 100.5 31.1 94.4 110 3 2 0 404 13
05/30/16 Video View Ortiz, David BOS Tolliver, Ashur BAL 8 Oriole Park ... PL 394 106.5 23.9 69.4 65 1 1 0 392 29
05/30/16 Video View Hernandez, Marco BOS Givens, Mychal BAL 8 Oriole Park ... JE 398 107.8 21.5 77.3 59 0 0 0 398 21
05/31/16 Video View Pedroia, Dustin BOS Gausman, Kevin BAL 1 Oriole Park ... PL 403 100.9 30.0 98.8 105 -3 2 0 403 26
05/31/16 Video View Betts, Mookie BOS Gausman, Kevin BAL 1 Oriole Park ... PL 433 107.3 22.7 91.0 78 0 0 0 432 27
05/31/16 Video View Betts, Mookie BOS Gausman, Kevin BAL 2 Oriole Park ... JE/L 342 95.0 29.7 126.1 67 4 1 0 336 6
05/31/16 Video View Betts, Mookie BOS Bundy, Dylan BAL 7 Oriole Park ... PL 386 99.8 29.3 70.8 86 3 1 0 382 25
06/01/16 Video View Betts, Mookie BOS Wright, Mike BAL 1 Oriole Park ... JE/L 395 97.9 29.8 81.7 92 5 2 0 388 8
06/01/16 Video View Young, Chris BOS Wright, Mike BAL 2 Oriole Park ... PL 380 99.4 36.0 106.5 126 6 4 0 371 17
06/01/16 Video View Betts, Mookie BOS Wright, Mike BAL 2 Oriole Park ... JE/L 370 96.0 36.8 105.9 120 13 3 0 355 1
06/01/16 Video View Ortiz, David BOS Wright, Mike BAL 3 Oriole Park ... PL 408 102.9 33.4 73.8 120 8 3 0 398 30
06/01/16 Video View Young, Chris BOS O'Day, Darren BAL 8 Oriole Park ... PL 372 103.3 25.7 120.1 64 1 1 0 370 29
06/02/16 Video View Trumbo, Mark BAL Porcello, Rick BOS 4 Oriole Park ... ND 431 115.5 22.1 108.8 67 0 1 0 430 30
06/02/16 Video View Jones, Adam BAL Porcello, Rick BOS 5 Oriole Park ... PL 383 100.2 34.0 109.8 115 1 1 0 380 30
06/02/16 Video View Ortiz, David BOS Jimenez, Ubaldo BAL 6 Oriole Park ... PL 405 102.7 28.4 75.2 93 1 1 0 403 29
06/02/16 Video View Trumbo, Mark BAL Porcello, Rick BOS 6 Oriole Park ... ND 451 108.2 27.2 84.1 103 3 1 0 446 30
06/02/16 Video View Machado, Manny BAL Tazawa, Junichi BOS 7 Oriole Park ... PL 377 100.7 28.5 115.3 79 1 1 0 375 30
06/02/16 Video View Alvarez, Pedro BAL Tazawa, Junichi BOS 8 Oriole Park ... PL 368 101.7 39.2 70.8 150 11 2 0 355 10
06/02/16 Video View Pena, Francisco BAL Ramirez, Noe BOS 8 Oriole Park ... PL 407 100.8 27.0 95.3 85 2 0 0 404 17
06/02/16 Video View Jones, Adam BAL Ramirez, Noe BOS 8 Oriole Park ... PL 386 100.8 36.2 113.8 121 15 1 0 370 30
06/03/16 Video View Rodriguez, Alex NYY Tillman, Chris BAL 4 Oriole Park ... JE 350 97.2 28.7 60.2 73 -2 0 0 351 18
06/03/16 Video View Beltran, Carlos NYY Tillman, Chris BAL 4 Oriole Park ... JE 410 109.5 19.2 84.6 57 2 0 0 408 10
06/03/16 Video View Davis, Chris BAL Eovaldi, Nathan NYY 4 Oriole Park ... ND 414 107.5 28.9 66.3 96 -2 1 0 415 30
06/03/16 Video View Romine, Austin NYY Tillman, Chris BAL 5 Oriole Park ... JE 384 111.2 20.8 113.0 52 0 1 0 384 24
06/04/16 Video View Trumbo, Mark BAL Nova, Ivan NYY 7 Oriole Park ... ND 456 107.8 29.1 92.8 114 8 2 0 447 30
06/04/16 Video View Jones, Adam BAL Goody, Nick NYY 7 Oriole Park ... ND 420 103.7 30.5 101.9 109 5 1 0 413 30
06/04/16 Video View Alvarez, Pedro BAL Nova, Ivan NYY 7 Oriole Park ... PL 367 103.7 25.6 125.2 61 1 0 -1 365 29
06/06/16 Video View Trumbo, Mark BAL Duffy, Danny KC 7 Oriole Park ... PL 410 102.7 29.7 97.0 114 -8 2 0 415 29
06/06/16 Video View Wieters, Matt BAL Duffy, Danny KC 7 Oriole Park ... PL 436 114.0 17.7 91.0 59 4 0 0 432 27
06/06/16 Video View Machado, Manny BAL Herrera, Kelvin KC 8 Oriole Park ... ND 390 109.0 25.1 124.5 67 -2 1 0 390 30
06/07/16 Video View Flaherty, Ryan BAL Ventura, Yordano KC 2 Oriole Park ... ND 411 103.3 34.5 68.7 118 19 2 0 389 30
06/07/16 Video View Trumbo, Mark BAL Wang, Chien-Ming KC 5 Oriole Park ... PL 424 109.8 19.7 89.7 61 -2 0 -1 426 27
06/07/16 Video View Davis, Chris BAL Wang, Chien-Ming KC 5 Oriole Park ... JE/L 397 98.8 35.0 87.6 126 11 1 0 385 0
06/07/16 Video View Jones, Adam BAL Wang, Chien-Ming KC 6 Oriole Park ... PL 399 103.8 28.0 108.0 92 -4 0 0 403 30
06/17/16 Video View Saunders, Michael TOR Wright, Mike BAL 1 Oriole Park ... PL 394 102.0 24.4 100.3 71 0 1 0 393 10
06/17/16 Video View Donaldson, Josh TOR Wright, Mike BAL 3 Oriole Park ... PL 420 108.4 20.4 94.0 66 2 0 0 418 21
06/17/16 Video View Smoak, Justin TOR Wright, Mike BAL 4 Oriole Park ... ND 409 105.8 27.4 67.8 83 3 1 0 404 30
06/17/16 Video View Saunders, Michael TOR Jimenez, Ubaldo BAL 4 Oriole Park ... JE/L 366 95.1 32.5 106.1 97 3 1 0 363 3
06/17/16 Video View Saunders, Michael TOR Jimenez, Ubaldo BAL 6 Oriole Park ... JE 355 98.0 27.6 61.4 68 1 1 0 353 11
06/17/16 Video View Flaherty, Ryan BAL Osuna, Roberto TOR 9 Oriole Park ... JE 373 109.2 21.6 60.8 51 2 0 0 371 21
06/18/16 Video View Carrera, Ezequiel TOR Gallardo, Yovani BAL 3 Oriole Park ... PL 411 104.7 22.8 85.2 70 0 1 0 411 16
06/18/16 Video View Schoop, Jonathan BAL Dickey, R.A. TOR 3 Oriole Park ... PL 385 100.5 27.9 73.6 86 -3 2 0 387 27
06/19/16 Video View Wieters, Matt BAL Stroman, Marcus TOR 1 Oriole Park ... PL 431 106.0 24.2 86.7 79 1 1 0 429 25
06/19/16 Video View Tulowitzki, Troy TOR Tillman, Chris BAL 2 Oriole Park ... PL 398 104.3 25.3 108.0 71 3 2 0 394 30
06/19/16 Video View Travis, Devon TOR Tillman, Chris BAL 2 Oriole Park ... PL 411 101.1 27.0 85.9 85 3 2 0 407 10
06/19/16 Video View Schoop, Jonathan BAL Chavez, Jesse TOR 7 Oriole Park ... ND 461 113.4 26.0 105.1 95 2 4 0 455 30
06/21/16 Video View Norris, Derek SD Wilson, Tyler BAL 4 Oriole Park ... JE 367 103.4 23.5 113.0 58 0 0 0 367 10
06/21/16 Video View Alvarez, Pedro BAL Perdomo, Luis SD 5 Oriole Park ... PL 380 101.8 36.9 74.4 141 2 1 0 376 25
06/21/16 Video View Alvarez, Pedro BAL Perdomo, Luis SD 4 Oriole Park ... PL 379 101.2 26.7 110.8 74 0 0 0 379 26
06/22/16 Video View Trumbo, Mark BAL Johnson, Erik SD 2 Oriole Park ... JE 401 99.7 29.8 77.7 92 7 2 0 393 22
06/22/16 Video View Flaherty, Ryan BAL Johnson, Erik SD 5 Oriole Park ... JE/L 398 98.4 33.0 80.4 109 11 2 0 385 10
06/24/16 Video View Dickerson, Corey TB Gallardo, Yovani BAL 1 Oriole Park ... JE 358 98.7 36.4 69.7 128 -7 1 0 363 21
06/24/16 Video View Jones, Adam BAL Moore, Matt TB 6 Oriole Park ... PL 375 97.9 29.5 108.5 86 1 0 0 373 16
06/24/16 Video View Machado, Manny BAL Geltz, Steven TB 8 Oriole Park ... PL 402 104.3 27.8 70.8 90 -1 0 0 403 30
06/25/16 Video View Conger, Hank TB Tillman, Chris BAL 2 Oriole Park ... PL 374 101.7 27.2 62.5 73 0 1 0 373 28
06/25/16 Video View Wieters, Matt BAL Odorizzi, Jake TB 4 Oriole Park ... ND 404 105.2 33.3 68.2 122 0 2 0 402 30
06/25/16 Video View Jones, Adam BAL Odorizzi, Jake TB 5 Oriole Park ... JE 374 109.8 21.4 118.9 51 0 0 0 374 24
06/25/16 Video View Davis, Chris BAL Odorizzi, Jake TB 6 Oriole Park ... PL 400 100.3 33.3 95.7 124 0 2 0 398 11
06/25/16 Video View Wieters, Matt BAL Farquhar, Danny TB 8 Oriole Park ... JE 362 97.3 29.8 64.5 80 1 1 0 360 18
06/26/16 Video View Davis, Chris BAL Smyly, Drew TB 1 Oriole Park ... PL 358 97.3 32.4 119.1 92 -4 3 0 359 29
06/26/16 Video View Jennings, Desmond TB Wilson, Tyler BAL 2 Oriole Park ... PL 418 109.2 20.6 96.6 64 1 0 0 417 24
06/26/16 Video View Schoop, Jonathan BAL Smyly, Drew TB 3 Oriole Park ... ND 412 105.2 33.5 112.7 118 8 4 0 400 30
06/26/16 Video View Arcia, Oswaldo TB Wilson, Tyler BAL 4 Oriole Park ... PL 386 97.4 31.3 102.4 97 4 3 0 380 7
06/26/16 Video View Trumbo, Mark BAL Smyly, Drew TB 5 Oriole Park ... JE 370 98.2 28.9 113.4 76 3 2 0 366 19
07/08/16 Video View Jones, Adam BAL Shoemaker, Matt LAA 1 Oriole Park ... PL 431 105.0 25.9 88.7 92 0 1 0 429 27
07/08/16 Video View Schoop, Jonathan BAL Shoemaker, Matt LAA 4 Oriole Park ... ND 411 108.4 30.2 122.8 95 0 2 0 409 30
07/08/16 Video View Trumbo, Mark BAL Guerra, Deolis LAA 9 Oriole Park ... JE 368 110.7 21.0 124.4 49 0 0 0 368 27
07/09/16 Video View Trumbo, Mark BAL Tropeano, Nick LAA 2 Oriole Park ... PL 412 102.6 25.8 87.1 93 -5 2 0 414 22
07/10/16 Video View Davis, Chris BAL Lincecum, Tim LAA 4 Oriole Park ... ND 422 106.1 29.9 110.6 102 7 2 0 413 30
07/10/16 Video View Hardy, J.J. BAL Street, Huston LAA 8 Oriole Park ... PL 394 108.1 22.6 109.6 60 1 0 0 393 30
07/22/16 Video View Trumbo, Mark BAL Bauer, Trevor CLE 1 Oriole Park ... ND 418 102.9 29.3 103.0 96 8 3 0 408 30
07/22/16 Video View Machado, Manny BAL Bauer, Trevor CLE 3 Oriole Park ... PL 418 101.5 29.2 87.7 100 3 3 0 412 22
07/23/16 Video View Trumbo, Mark BAL Tomlin, Josh CLE 1 Oriole Park ... PL 386 104.5 25.2 112.3 70 -2 1 0 386 29
07/23/16 Video View Alvarez, Pedro BAL Tomlin, Josh CLE 7 Oriole Park ... ND 448 111.6 26.4 74.8 96 0 2 0 446 30
07/24/16 Video View Schoop, Jonathan BAL Kluber, Corey CLE 5 Oriole Park ... ND 413 109.0 23.1 105.1 70 -2 1 0 413 30
07/24/16 Video View Reimold, Nolan BAL Allen, Cody CLE 9 Oriole Park ... PL 390 105.2 21.8 101.7 60 0 1 0 389 7
07/25/16 Video View Arenado, Nolan COL Gallardo, Yovani BAL 4 Oriole Park ... PL 410 103.4 26.6 103.4 82 3 2 0 405 30
07/26/16 Video View Jones, Adam BAL Bettis, Chad COL 5 Oriole Park ... ND 420 104.2 31.9 105.1 115 7 4 0 409 30
07/27/16 Video View Dahl, David COL Bundy, Dylan BAL 6 Oriole Park ... PL 414 101.0 28.3 88.7 96 2 2 0 410 20
07/27/16 Video View Machado, Manny BAL Gray, Jon COL 6 Oriole Park ... PL 380 98.6 32.6 107.4 106 -1 4 0 378 27
07/27/16 Video View Hundley, Nick COL Bundy, Dylan BAL 6 Oriole Park ... ND 421 107.6 27.8 111.9 88 2 3 0 416 30
08/02/16 Video View Alvarez, Pedro BAL Darvish, Yu TEX 5 Oriole Park ... JE 376 106.2 22.1 69.8 54 0 1 0 376 16
08/02/16 Video View Jones, Adam BAL Darvish, Yu TEX 6 Oriole Park ... JE/L 365 98.1 36.8 110.5 124 3 2 0 359 18
08/02/16 Video View Alvarez, Pedro BAL Darvish, Yu TEX 7 Oriole Park ... ND 400 104.6 28.3 67.9 91 -3 1 0 401 30
08/02/16 Video View Wieters, Matt BAL Alvarez, Dario TEX 7 Oriole Park ... JE 387 105.0 22.8 73.3 62 3 0 0 383 15
08/03/16 Video View Beltran, Carlos TEX Gausman, Kevin BAL 1 Oriole Park ... JE 380 104.4 22.7 73.5 60 0 0 0 380 11
08/04/16 Video View Lucroy, Jonathan TEX Miley, Wade BAL 2 Oriole Park ... PL 403 105.4 22.7 100.0 65 -1 0 0 403 22
08/04/16 Video View Alvarez, Pedro BAL Griffin, A.J. TEX 5 Oriole Park ... PL 408 101.3 31.4 81.9 114 0 2 0 405 26
08/04/16 Video View Trumbo, Mark BAL Griffin, A.J. TEX 5 Oriole Park ... PL 431 105.2 25.7 88.5 92 0 1 0 430 27
08/04/16 Video View Kim, Hyun Soo BAL Griffin, A.J. TEX 6 Oriole Park ... PL 402 103.6 27.7 71.9 87 1 1 0 401 30
08/16/16 Video View Betts, Mookie BOS Gallardo, Yovani BAL 5 Oriole Park ... PL 392 106.3 23.9 111.4 64 1 1 0 390 30
08/16/16 Video View Betts, Mookie BOS Brach, Brad BAL 8 Oriole Park ... JE 368 97.2 32.7 116.3 93 4 3 0 361 22
08/17/16 Video View Davis, Chris BAL Price, David BOS 2 Oriole Park ... ND 413 108.2 29.8 58.2 92 2 3 0 408 30
08/17/16 Video View Bradley Jr., Jackie BOS Bundy, Dylan BAL 3 Oriole Park ... JE 416 102.3 26.1 91.1 86 1 2 0 414 21
08/17/16 Video View Leon, Sandy BOS Bundy, Dylan BAL 5 Oriole Park ... ND 438 110.7 27.0 70.1 91 2 2 0 434 30
08/18/16 Video View Trumbo, Mark BAL Musgrove, Joe HOU 1 Oriole Park ... ND 419 107.9 26.9 111.2 85 2 2 0 415 30
08/18/16 Video View Hardy, J.J. BAL Musgrove, Joe HOU 4 Oriole Park ... PL 375 103.8 26.4 123.2 66 2 2 0 372 30
08/18/16 Video View Bregman, Alex HOU Gausman, Kevin BAL 6 Oriole Park ... PL 430 103.7 29.8 94.4 109 4 3 0 423 29
08/18/16 Video View Hardy, J.J. BAL Musgrove, Joe HOU 6 Oriole Park ... PL 392 105.1 24.2 109.1 66 1 1 0 390 30
08/18/16 Video View Machado, Manny BAL Hoyt, James HOU 6 Oriole Park ... PL 428 107.0 23.1 94.9 75 0 1 0 427 28
08/18/16 Video View Davis, Chris BAL Hoyt, James HOU 6 Oriole Park ... ND 416 106.7 30.6 64.7 101 3 3 0 410 30
08/18/16 Video View Reed, A.J. HOU Gausman, Kevin BAL 7 Oriole Park ... ND 407 107.9 25.3 66.9 72 1 1 0 404 30
08/18/16 Video View Davis, Chris BAL White, Tyler HOU 8 Oriole Park ... ND 438 106.5 33.5 81.6 136 11 4 0 423 30
08/19/16 Video View Springer, George HOU Miley, Wade BAL 1 Oriole Park ... JE 404 104.5 24.3 77.7 72 1 1 0 402 26
08/19/16 Video View Jones, Adam BAL McHugh, Collin HOU 1 Oriole Park ... JE 371 107.8 21.9 117.4 52 0 1 0 370 20
08/19/16 Video View Davis, Chris BAL McHugh, Collin HOU 1 Oriole Park ... ND 450 110.7 27.7 74.6 102 2 4 0 444 30
08/19/16 Video View Machado, Manny BAL McHugh, Collin HOU 1 Oriole Park ... JE/L 416 101.1 30.6 92.4 109 3 3 0 410 18
08/19/16 Video View Trumbo, Mark BAL McHugh, Collin HOU 1 Oriole Park ... JE 401 100.8 25.1 85.1 76 1 1 0 399 3
08/19/16 Video View Alvarez, Pedro BAL Devenski, Chris HOU 5 Oriole Park ... PL 423 112.5 21.8 75.1 66 1 1 0 422 29
08/19/16 Video View Altuve, Jose HOU Wilson, Tyler BAL 6 Oriole Park ... ND 448 113.8 22.8 102.5 75 1 1 0 446 30
08/19/16 Video View Gattis, Evan HOU Wilson, Tyler BAL 6 Oriole Park ... PL 394 101.5 26.8 105.6 77 2 1 0 390 26
08/19/16 Video View Hernandez, Teoscar HOU Worley, Vance BAL 9 Oriole Park ... ND 421 105.2 28.4 104.6 97 2 2 0 417 30
08/20/16 Video View Bregman, Alex HOU Tillman, Chris BAL 1 Oriole Park ... PL 376 103.7 25.7 117.8 67 0 1 0 375 28
08/20/16 Video View Springer, George HOU Despaigne, Odrisamer BAL 5 Oriole Park ... JE 388 103.9 23.7 74.4 64 1 1 0 387 21
08/20/16 Video View Davis, Chris BAL Fiers, Mike HOU 4 Oriole Park ... PL 426 102.9 30.1 96.7 106 7 2 0 416 27
08/20/16 Video View Pearce, Steve BAL Peacock, Brad HOU 8 Oriole Park ... PL 393 98.1 32.3 99.4 107 5 2 0 386 6
08/20/16 Video View Castro, Jason HOU Flaherty, Ryan BAL 9 Oriole Park ... PL 388 105.4 25.9 62.1 70 1 1 0 386 30
08/21/16 Video View Schoop, Jonathan BAL Keuchel, Dallas HOU 4 Oriole Park ... JE 411 105.5 22.2 95.6 69 0 0 0 411 19
08/21/16 Video View Marisnick, Jake HOU Bridwell, Parker BAL 8 Oriole Park ... JE 367 97.7 32.1 114.7 94 0 1 0 365 25
08/21/16 Video View Trumbo, Mark BAL Giles, Ken HOU 9 Oriole Park ... PL 423 103.3 28.6 93.4 105 0 1 0 422 28
08/22/16 Video View Schoop, Jonathan BAL Cole, A.J. WSH 3 Oriole Park ... ND 393 107.2 34.5 116.3 131 -10 1 0 401 30
08/22/16 Video View Rendon, Anthony WSH Bundy, Dylan BAL 4 Oriole Park ... ND 422 107.2 24.2 100.3 81 0 0 0 422 30
08/22/16 Video View Trumbo, Mark BAL Cole, A.J. WSH 4 Oriole Park ... PL 406 103.5 30.9 104.6 112 -3 1 0 408 30
08/22/16 Video View Espinosa, Danny WSH Givens, Mychal BAL 7 Oriole Park ... PL 418 103.8 27.3 98.2 97 -1 1 0 418 30
08/23/16 Video View Davis, Chris BAL Petit, Yusmeiro WSH 8 Oriole Park ... PL 430 106.9 25.3 81.1 87 0 0 0 430 30
08/29/16 Video View Hardy, J.J. BAL Estrada, Marco TOR 3 Oriole Park ... JE/L 369 96.0 34.8 106.6 110 4 4 0 362 5
08/29/16 Video View Donaldson, Josh TOR Miley, Wade BAL 4 Oriole Park ... PL 405 100.8 30.9 82.8 112 -2 3 0 404 17
08/29/16 Video View Bautista, Jose TOR Miley, Wade BAL 6 Oriole Park ... PL 356 98.6 37.6 114.6 126 -1 5 0 353 21
08/30/16 Video View Pearce, Steve BAL Happ, J.A. TOR 5 Oriole Park ... PL 395 103.4 26.4 108.3 78 0 1 0 394 30
08/30/16 Video View Machado, Manny BAL Happ, J.A. TOR 5 Oriole Park ... ND 444 111.4 21.8 95.8 75 0 0 0 444 30
08/30/16 Video View Saunders, Michael TOR Jimenez, Ubaldo BAL 7 Oriole Park ... ND 426 109.6 25.1 72.1 79 1 1 0 424 30
08/30/16 Video View Wieters, Matt BAL Grilli, Jason TOR 8 Oriole Park ... JE/L 354 93.9 37.9 64.5 111 19 1 0 334 0


About HitTracker | Contact Us
© 2006-2016 HitTrackerOnline